createdAt,value
2022-09-18T00:00:17.218Z,100554.19
2022-09-18T00:02:46.911Z,100554.16
2022-09-18T00:05:16.652Z,100555.84
2022-09-18T00:07:46.254Z,100556.78
2022-09-18T00:10:18.519Z,100557.66
2022-09-18T00:12:48.066Z,100553.06
2022-09-18T00:15:17.656Z,100560.91
2022-09-18T00:17:47.501Z,100561.00
2022-09-18T00:20:17.145Z,100552.16
2022-09-18T00:22:47.132Z,100561.72
2022-09-18T00:25:19.474Z,100547.72
2022-09-18T00:27:49.744Z,100546.75
2022-09-18T00:30:19.678Z,100548.47
2022-09-18T00:32:49.248Z,100555.38
2022-09-18T00:35:18.986Z,100552.66
2022-09-18T00:37:48.601Z,100551.69
2022-09-18T00:40:21.118Z,100550.84
2022-09-18T00:42:50.795Z,100544.56
2022-09-18T00:45:20.579Z,100543.78
2022-09-18T00:47:51.691Z,100546.34
2022-09-18T00:50:24.049Z,100545.50
2022-09-18T00:52:55.317Z,100554.19
2022-09-18T00:55:32.004Z,100558.59
2022-09-18T00:58:04.143Z,100556.97
2022-09-18T01:00:34.829Z,100544.47
2022-09-18T01:03:04.728Z,100548.97
2022-09-18T01:05:42.627Z,100556.91
2022-09-18T01:08:22.593Z,100559.38
2022-09-18T01:11:03.797Z,100555.91
2022-09-18T01:13:38.807Z,100557.69
2022-09-18T01:16:12.054Z,100552.97
2022-09-18T01:18:48.584Z,100555.63
2022-09-18T01:21:19.476Z,100559.97
2022-09-18T01:24:23.837Z,100552.97
2022-09-18T01:26:59.914Z,100554.00
2022-09-18T01:29:38.832Z,100557.41
2022-09-18T01:32:12.167Z,100552.13
2022-09-18T01:34:46.836Z,100551.47
2022-09-18T01:37:26.967Z,100551.47
2022-09-18T01:40:00.479Z,100548.75
2022-09-18T01:42:32.542Z,100544.47
2022-09-18T01:45:09.101Z,100542.69
2022-09-18T01:47:42.842Z,100540.91
2022-09-18T01:50:13.468Z,100540.66
2022-09-18T01:52:46.221Z,100540.00
2022-09-18T01:55:19.264Z,100538.09
2022-09-18T01:57:54.331Z,100522.09
2022-09-18T02:00:28.522Z,100532.81
2022-09-18T02:03:02.662Z,100523.97
2022-09-18T02:05:36.490Z,100527.47
2022-09-18T02:08:12.510Z,100520.47
2022-09-18T02:10:46.164Z,100526.59
2022-09-18T02:13:23.564Z,100530.16
2022-09-18T02:16:03.012Z,100527.66
2022-09-18T02:18:36.376Z,100516.25
2022-09-18T02:21:11.198Z,100529.44
2022-09-18T02:23:42.237Z,100533.84
2022-09-18T02:26:14.912Z,100534.63
2022-09-18T02:28:45.468Z,100531.16
2022-09-18T02:31:17.938Z,100532.94
2022-09-18T02:33:47.527Z,100528.50
2022-09-18T02:36:36.326Z,100509.19
2022-09-18T02:39:15.145Z,100517.97
2022-09-18T02:41:50.765Z,100504.00
2022-09-18T02:44:23.394Z,100511.13
2022-09-18T02:47:02.250Z,100507.69
2022-09-18T02:49:44.490Z,100511.19
2022-09-18T02:52:18.233Z,100512.69
2022-09-18T02:54:52.320Z,100509.16
2022-09-18T02:57:24.456Z,100511.69
2022-09-18T02:59:57.149Z,100514.34
2022-09-18T03:02:30.876Z,100510.03
2022-09-18T03:05:00.549Z,100501.22
2022-09-18T03:07:59.312Z,100508.22
2022-09-18T03:10:31.345Z,100502.97
2022-09-18T03:13:01.319Z,100502.09
2022-09-18T03:15:30.986Z,100499.28
2022-09-18T03:18:03.375Z,100500.28
2022-09-18T03:20:32.899Z,100503.63
2022-09-18T03:23:06.467Z,100507.97
2022-09-18T03:25:36.156Z,100504.56
2022-09-18T03:28:06.540Z,100501.94
2022-09-18T03:30:42.464Z,100501.06
2022-09-18T03:33:14.653Z,100492.16
2022-09-18T03:35:46.593Z,100493.94
2022-09-18T03:38:16.954Z,100500.06
2022-09-18T03:40:47.806Z,100501.84
2022-09-18T03:43:19.389Z,100498.28
2022-09-18T03:45:49.706Z,100496.47
2022-09-18T03:48:22.830Z,100501.72
2022-09-18T03:50:54.276Z,100501.66
2022-09-18T03:53:24.692Z,100494.66
2022-09-18T03:56:03.829Z,100495.53
2022-09-18T03:59:01.411Z,100500.16
2022-09-18T04:01:38.879Z,100490.53
2022-09-18T04:04:31.141Z,100484.50
2022-09-18T04:07:32.772Z,100494.16
2022-09-18T04:10:21.185Z,100503.78
2022-09-18T04:12:50.964Z,100504.56
2022-09-18T04:15:28.963Z,100500.16
2022-09-18T04:17:59.224Z,100506.13
2022-09-18T04:20:31.733Z,100494.00
2022-09-18T04:23:02.283Z,100490.28
2022-09-18T04:25:31.978Z,100488.81
2022-09-18T04:28:01.549Z,100489.75
2022-09-18T04:30:31.490Z,100499.38
2022-09-18T04:33:02.292Z,100493.31
2022-09-18T04:35:35.366Z,100491.56
2022-09-18T04:38:04.991Z,100490.88
2022-09-18T04:40:34.789Z,100489.16
2022-09-18T04:43:05.016Z,100488.22
2022-09-18T04:45:34.989Z,100485.75
2022-09-18T04:48:05.458Z,100495.38
2022-09-18T04:50:38.340Z,100490.09
2022-09-18T04:53:19.917Z,100499.78
2022-09-18T04:55:50.423Z,100498.00
2022-09-18T04:58:21.012Z,100498.00
2022-09-18T05:00:56.965Z,100491.03
2022-09-18T05:03:26.699Z,100489.28
2022-09-18T05:05:59.691Z,100492.81
2022-09-18T05:08:32.839Z,100491.88
2022-09-18T05:11:04.623Z,100491.03
2022-09-18T05:13:39.490Z,100492.81
2022-09-18T05:16:15.484Z,100480.47
2022-09-18T05:18:49.761Z,100481.31
2022-09-18T05:21:23.427Z,100488.44
2022-09-18T05:23:54.694Z,100490.22
2022-09-18T05:26:24.280Z,100483.31
2022-09-18T05:28:53.917Z,100493.84
2022-09-18T05:31:23.616Z,100496.41
2022-09-18T05:33:57.296Z,100493.66
2022-09-18T05:36:29.593Z,100497.19
2022-09-18T05:38:59.682Z,100495.38
2022-09-18T05:41:29.700Z,100499.72
2022-09-18T05:43:59.408Z,100507.56
2022-09-18T05:46:30.166Z,100500.41
2022-09-18T05:49:03.773Z,100504.84
2022-09-18T05:51:36.167Z,100499.50
2022-09-18T05:54:05.845Z,100486.28
2022-09-18T05:56:49.556Z,100480.16
2022-09-18T05:59:19.444Z,100489.78
2022-09-18T06:01:51.309Z,100488.91
2022-09-18T06:04:20.970Z,100483.53
2022-09-18T06:07:09.595Z,100498.44
2022-09-18T06:09:39.731Z,100489.50
2022-09-18T06:12:09.975Z,100492.03
2022-09-18T06:14:39.724Z,100488.38
2022-09-18T06:17:09.310Z,100492.72
2022-09-18T06:19:38.966Z,100490.75
2022-09-18T06:22:11.120Z,100493.59
2022-09-18T06:24:40.865Z,100501.44
2022-09-18T06:27:17.854Z,100504.72
2022-09-18T06:29:47.888Z,100504.72
2022-09-18T06:32:27.864Z,100496.72
2022-09-18T06:34:58.239Z,100502.00
2022-09-18T06:41:31.900Z,100503.59
2022-09-18T06:44:01.629Z,100504.44
2022-09-18T06:46:34.087Z,100500.09
2022-09-18T06:49:16.680Z,100495.72
2022-09-18T06:51:48.936Z,100504.44
2022-09-18T06:54:19.972Z,100502.78
2022-09-18T06:56:54.158Z,100505.28
2022-09-18T06:59:24.992Z,100499.25
2022-09-18T07:01:54.940Z,100500.09
2022-09-18T07:04:51.953Z,100495.66
2022-09-18T07:07:21.980Z,100501.88
2022-09-18T07:09:53.698Z,100498.31
2022-09-18T07:12:32.551Z,100492.72
2022-09-18T07:15:05.768Z,100497.09
2022-09-18T07:17:36.216Z,100502.38
2022-09-18T07:20:06.469Z,100491.00
2022-09-18T07:22:46.428Z,100493.56
2022-09-18T07:25:17.136Z,100496.22
2022-09-18T07:27:50.086Z,100496.16
2022-09-18T07:30:22.710Z,100496.16
2022-09-18T07:32:56.023Z,100483.75
2022-09-18T07:35:31.355Z,100484.59
2022-09-18T07:38:07.785Z,100474.88
2022-09-18T07:40:53.478Z,100480.16
2022-09-18T07:43:34.325Z,100479.25
2022-09-18T07:46:04.751Z,100478.31
2022-09-18T07:48:37.072Z,100479.97
2022-09-18T07:51:24.150Z,100478.88
2022-09-18T07:53:56.298Z,100469.81
2022-09-18T07:56:47.227Z,100462.75
2022-09-18T07:59:22.998Z,100463.31
2022-09-18T08:01:59.421Z,100473.88
2022-09-18T08:04:32.146Z,100472.09
2022-09-18T08:07:07.270Z,100470.28
2022-09-18T08:09:55.428Z,100477.13
2022-09-18T08:12:40.339Z,100472.47
2022-09-18T08:15:36.761Z,100482.84
2022-09-18T08:18:06.863Z,100475.81
2022-09-18T08:21:00.186Z,100471.25
2022-09-18T08:23:38.627Z,100467.59
2022-09-18T08:26:09.124Z,100475.44
2022-09-18T08:28:39.362Z,100483.38
2022-09-18T08:31:12.646Z,100484.16
2022-09-18T08:33:42.588Z,100501.72
2022-09-18T08:36:13.496Z,100489.22
2022-09-18T08:38:55.966Z,100490.91
2022-09-18T08:41:59.654Z,100481.06
2022-09-18T08:44:35.743Z,100483.84
2022-09-18T08:47:10.260Z,100484.69
2022-09-18T08:49:42.382Z,100479.28
2022-09-18T08:52:17.543Z,100474.75
2022-09-18T08:54:52.425Z,100488.06
2022-09-18T08:57:59.345Z,100487.03
2022-09-18T09:00:40.682Z,100481.63
2022-09-18T09:03:31.033Z,100468.41
2022-09-18T09:06:03.190Z,100466.38
2022-09-18T09:08:52.095Z,100474.09
2022-09-18T09:11:32.732Z,100467.69
2022-09-18T09:14:16.661Z,100465.00
2022-09-18T09:16:48.288Z,100466.66
2022-09-18T09:19:31.398Z,100459.50
2022-09-18T09:22:08.279Z,100450.63
2022-09-18T09:24:46.957Z,100454.66
2022-09-18T09:27:37.636Z,100446.91
2022-09-18T09:30:38.207Z,100437.03
2022-09-18T09:33:28.253Z,100438.63
2022-09-18T09:36:25.362Z,100440.19
2022-09-18T09:38:59.372Z,100437.47
2022-09-18T09:41:35.452Z,100434.75
2022-09-18T09:44:23.559Z,100433.97
2022-09-18T09:47:00.366Z,100435.84
2022-09-18T09:49:32.324Z,100442.16
2022-09-18T09:52:11.727Z,100441.38
2022-09-18T09:54:42.413Z,100429.00
2022-09-18T09:57:20.674Z,100432.44
2022-09-18T09:59:56.247Z,100431.50
2022-09-18T10:02:53.138Z,100429.63
2022-09-18T10:05:30.749Z,100432.28
2022-09-18T10:08:06.746Z,100425.03
2022-09-18T10:10:42.966Z,100419.50
2022-09-18T10:13:16.977Z,100426.59
2022-09-18T10:15:48.848Z,100424.72
2022-09-18T10:18:26.516Z,100423.09
2022-09-18T10:21:00.533Z,100424.78
2022-09-18T10:23:38.814Z,100421.91
2022-09-18T10:26:09.616Z,100418.06
2022-09-18T10:28:39.221Z,100420.72
2022-09-18T10:31:12.389Z,100422.59
2022-09-18T10:33:51.323Z,100427.81
2022-09-18T10:36:32.481Z,100432.41
2022-09-18T10:39:19.828Z,100442.28
2022-09-18T10:41:51.922Z,100454.97
2022-09-18T10:44:23.848Z,100439.53
2022-09-18T10:47:01.558Z,100440.06
2022-09-18T10:49:34.407Z,100439.47
2022-09-18T10:52:36.988Z,100435.28
2022-09-18T10:55:22.024Z,100437.00
2022-09-18T10:58:15.737Z,100439.88
2022-09-18T11:00:56.474Z,100440.72
2022-09-18T11:03:45.734Z,100437.41
2022-09-18T11:06:23.951Z,100432.50
2022-09-18T11:08:56.283Z,100430.03
2022-09-18T11:11:31.462Z,100427.38
2022-09-18T11:14:08.478Z,100415.78
2022-09-18T11:16:55.737Z,100419.91
2022-09-18T11:19:30.043Z,100418.91
2022-09-18T11:22:02.811Z,100420.53
2022-09-18T11:24:37.010Z,100418.41
2022-09-18T11:27:23.249Z,100421.72
2022-09-18T11:30:17.167Z,100427.13
2022-09-18T11:32:49.187Z,100414.00
2022-09-18T11:35:22.543Z,100408.50
2022-09-18T11:37:55.798Z,100417.28
2022-09-18T11:40:28.416Z,100423.13
2022-09-18T11:43:05.507Z,100414.16
2022-09-18T11:45:44.988Z,100414.84
2022-09-18T11:48:26.206Z,100413.13
2022-09-18T11:50:58.712Z,100413.94
2022-09-18T11:53:31.099Z,100418.44
2022-09-18T11:56:04.577Z,100412.19
2022-09-18T11:58:39.417Z,100420.00
2022-09-18T12:01:17.117Z,100419.91
2022-09-18T12:03:49.987Z,100422.47
2022-09-18T12:06:26.066Z,100422.31
2022-09-18T12:08:57.910Z,100416.25
2022-09-18T12:11:34.850Z,100411.81
2022-09-18T12:14:14.952Z,100409.09
2022-09-18T12:16:59.122Z,100411.81
2022-09-18T12:19:34.710Z,100417.94
2022-09-18T12:22:08.350Z,100409.00
2022-09-18T12:24:38.131Z,100406.47
2022-09-18T12:27:15.294Z,100404.66
2022-09-18T12:30:12.372Z,100406.59
2022-09-18T12:33:00.738Z,100410.00
2022-09-18T12:35:50.343Z,100403.97
2022-09-18T12:38:33.032Z,100413.75
2022-09-18T12:41:15.572Z,100406.00
2022-09-18T12:43:56.761Z,100413.69
2022-09-18T12:46:37.178Z,100405.59
2022-09-18T12:49:21.440Z,100414.53
2022-09-18T12:51:52.943Z,100423.22
2022-09-18T12:54:58.029Z,100418.88
2022-09-18T12:57:40.640Z,100413.75
2022-09-18T13:00:16.072Z,100411.34
2022-09-18T13:02:54.442Z,100419.28
2022-09-18T13:05:28.798Z,100414.78
2022-09-18T13:08:02.977Z,100421.03
2022-09-18T13:10:35.469Z,100413.22
2022-09-18T13:13:08.477Z,100412.19
2022-09-18T13:15:42.539Z,100402.56
2022-09-18T13:18:24.470Z,100398.13
2022-09-18T13:20:55.596Z,100407.84
2022-09-18T13:23:26.999Z,100411.59
2022-09-18T13:25:56.882Z,100413.53
2022-09-18T13:28:27.599Z,100418.06
2022-09-18T13:31:27.716Z,100417.91
2022-09-18T13:34:01.936Z,100410.13
2022-09-18T13:36:33.965Z,100422.66
2022-09-18T13:39:06.451Z,100427.50
2022-09-18T13:41:44.529Z,100408.53
2022-09-18T13:44:21.100Z,100428.22
2022-09-18T13:46:52.098Z,100419.59
2022-09-18T13:49:29.661Z,100422.31
2022-09-18T13:51:59.496Z,100413.53
2022-09-18T13:54:31.383Z,100418.13
2022-09-18T13:57:24.711Z,100415.63
2022-09-18T13:59:58.501Z,100405.88
2022-09-18T14:02:36.848Z,100402.59
2022-09-18T14:05:34.777Z,100416.00
2022-09-18T14:08:12.666Z,100434.75
2022-09-18T14:11:05.049Z,100422.84
2022-09-18T14:13:47.549Z,100420.72
2022-09-18T14:16:28.716Z,100415.81
2022-09-18T14:19:00.856Z,100422.09
2022-09-18T14:21:35.112Z,100427.38
2022-09-18T14:24:20.560Z,100417.44
2022-09-18T14:27:02.360Z,100428.03
2022-09-18T14:29:35.490Z,100428.03
2022-09-18T14:32:05.553Z,100423.94
2022-09-18T14:34:40.616Z,100414.34
2022-09-18T14:37:27.122Z,100422.56
2022-09-18T14:39:58.619Z,100430.50
2022-09-18T14:42:34.705Z,100425.41
2022-09-18T14:45:17.568Z,100428.25
2022-09-18T14:47:48.486Z,100428.41
2022-09-18T14:50:32.279Z,100422.00
2022-09-18T14:53:06.181Z,100414.78
2022-09-18T14:55:38.499Z,100414.88
2022-09-18T14:58:10.035Z,100417.34
2022-09-18T15:00:40.409Z,100415.66
2022-09-18T15:03:12.196Z,100413.00
2022-09-18T15:05:41.751Z,100410.38
2022-09-18T15:08:21.672Z,100422.56
2022-09-18T15:10:55.752Z,100415.66
2022-09-18T15:13:25.587Z,100418.34
2022-09-18T15:16:01.006Z,100414.09
2022-09-18T15:18:31.829Z,100429.00
2022-09-18T15:21:03.427Z,100428.13
2022-09-18T15:23:38.293Z,100425.63
2022-09-18T15:26:12.127Z,100417.88
2022-09-18T15:28:44.078Z,100425.13
2022-09-18T15:31:15.036Z,100421.34
2022-09-18T15:33:55.163Z,100417.88
2022-09-18T15:36:28.343Z,100422.13
2022-09-18T15:39:01.400Z,100424.06
2022-09-18T15:41:41.519Z,100425.84
2022-09-18T15:44:49.488Z,100422.28
2022-09-18T15:47:32.939Z,100425.00
2022-09-18T15:50:04.277Z,100431.22
2022-09-18T15:52:40.329Z,100433.00
2022-09-18T15:55:19.302Z,100433.03
2022-09-18T15:57:51.335Z,100444.44
2022-09-18T16:00:21.534Z,100445.25
2022-09-18T16:02:54.054Z,100444.44
2022-09-18T16:05:24.816Z,100448.66
2022-09-18T16:07:59.674Z,100446.88
2022-09-18T16:10:51.952Z,100448.50
2022-09-18T16:13:34.274Z,100442.31
2022-09-18T16:16:25.836Z,100448.47
2022-09-18T16:18:58.272Z,100441.53
2022-09-18T16:21:30.336Z,100444.25
2022-09-18T16:24:02.888Z,100446.03
2022-09-18T16:26:36.614Z,100448.59
2022-09-18T16:29:08.444Z,100453.88
2022-09-18T16:31:39.287Z,100451.31
2022-09-18T16:34:23.062Z,100457.28
2022-09-18T16:36:53.386Z,100453.88
2022-09-18T16:39:25.192Z,100461.69
2022-09-18T16:41:57.517Z,100460.06
2022-09-18T16:44:27.115Z,100455.66
2022-09-18T16:46:59.118Z,100453.94
2022-09-18T16:49:31.447Z,100457.50
2022-09-18T16:52:01.137Z,100449.59
2022-09-18T16:54:30.658Z,100454.09
2022-09-18T16:57:06.515Z,100462.00
2022-09-18T16:59:36.798Z,100462.13
2022-09-18T17:02:06.516Z,100455.41
2022-09-18T17:04:36.618Z,100458.91
2022-09-18T17:07:06.722Z,100463.41
2022-09-18T17:09:36.346Z,100459.13
2022-09-18T17:12:08.979Z,100460.91
2022-09-18T17:14:38.623Z,100462.78
2022-09-18T17:17:08.208Z,100464.53
2022-09-18T17:19:39.410Z,100476.88
2022-09-18T17:22:09.340Z,100470.72
2022-09-18T17:24:39.015Z,100463.75
2022-09-18T17:27:11.601Z,100465.75
2022-09-18T17:29:41.233Z,100474.78
2022-09-18T17:32:12.598Z,100476.69
2022-09-18T17:34:43.534Z,100480.25
2022-09-18T17:37:13.248Z,100471.69
2022-09-18T17:39:42.895Z,100460.41
2022-09-18T17:42:15.537Z,100453.75
2022-09-18T17:44:45.063Z,100449.59
2022-09-18T17:47:14.789Z,100440.97
2022-09-18T17:49:44.361Z,100440.28
2022-09-18T17:52:13.927Z,100435.88
2022-09-18T17:54:43.604Z,100433.41
2022-09-18T17:57:15.792Z,100440.97
2022-09-18T17:59:47.983Z,100432.53
2022-09-18T18:02:17.700Z,100434.47
2022-09-18T18:04:47.283Z,100427.56
2022-09-18T18:07:17.168Z,100430.19
2022-09-18T18:09:46.790Z,100441.78
2022-09-18T18:12:19.348Z,100452.44
2022-09-18T18:14:49.007Z,100450.75
2022-09-18T18:17:18.868Z,100451.66
2022-09-18T18:19:49.413Z,100451.44
2022-09-18T18:22:19.330Z,100457.50
2022-09-18T18:24:49.644Z,100459.94
2022-09-18T18:27:22.410Z,100461.59
2022-09-18T18:29:52.518Z,100464.44
2022-09-18T18:32:22.834Z,100473.19
2022-09-18T18:34:52.552Z,100475.00
2022-09-18T18:37:22.358Z,100478.53
2022-09-18T18:39:52.723Z,100482.88
2022-09-18T18:42:27.792Z,100486.53
2022-09-18T18:44:58.756Z,100496.28
2022-09-18T18:47:29.507Z,100499.84
2022-09-18T18:49:59.743Z,100504.44
2022-09-18T18:52:30.794Z,100502.59
2022-09-18T18:55:01.979Z,100501.00
2022-09-18T18:57:34.156Z,100498.69
2022-09-18T19:00:03.865Z,100501.69
2022-09-18T19:02:33.983Z,100496.59
2022-09-18T19:05:05.175Z,100505.56
2022-09-18T19:07:35.845Z,100512.53
2022-09-18T19:10:05.378Z,100522.38
2022-09-18T19:12:37.618Z,100520.66
2022-09-18T19:15:08.006Z,100530.47
2022-09-18T19:17:37.632Z,100522.56
2022-09-18T19:20:08.184Z,100531.38
2022-09-18T19:22:37.788Z,100533.34
2022-09-18T19:25:08.838Z,100531.56
2022-09-18T19:27:42.206Z,100527.31
2022-09-18T19:30:12.711Z,100524.81
2022-09-18T19:32:42.253Z,100531.00
2022-09-18T19:35:12.121Z,100534.53
2022-09-18T19:37:42.731Z,100534.84
2022-09-18T19:40:14.212Z,100531.41
2022-09-18T19:42:48.169Z,100538.44
2022-09-18T19:45:20.653Z,100536.69
2022-09-18T19:47:51.394Z,100527.03
2022-09-18T19:50:26.573Z,100530.50
2022-09-18T19:52:56.166Z,100531.44
2022-09-18T19:55:26.029Z,100527.22
2022-09-18T19:57:59.764Z,100533.50
2022-09-18T20:00:30.885Z,100544.88
2022-09-18T20:03:01.234Z,100541.31
2022-09-18T20:05:30.971Z,100550.13
2022-09-18T20:08:01.380Z,100553.47
2022-09-18T20:10:30.916Z,100561.56
2022-09-18T20:13:03.153Z,100558.00
2022-09-18T20:15:32.693Z,100563.25
2022-09-18T20:18:02.198Z,100561.56
2022-09-18T20:20:31.764Z,100564.13
2022-09-18T20:23:01.283Z,100564.22
2022-09-18T20:25:30.899Z,100568.53
2022-09-18T20:28:03.068Z,100571.72
2022-09-18T20:30:32.606Z,100571.81
2022-09-18T20:33:02.182Z,100573.78
2022-09-18T20:35:31.690Z,100574.66
2022-09-18T20:38:04.557Z,100579.72
2022-09-18T20:40:34.990Z,100581.34
2022-09-18T20:43:07.972Z,100578.00
2022-09-18T20:45:37.543Z,100584.19
2022-09-18T20:48:07.259Z,100573.81
2022-09-18T20:50:37.286Z,100578.06
2022-09-18T20:53:08.167Z,100585.03
2022-09-18T20:55:37.685Z,100593.91
2022-09-18T20:58:10.136Z,100583.44
2022-09-18T21:00:39.836Z,100580.00
2022-09-18T21:03:09.574Z,100586.09
2022-09-18T21:05:42.959Z,100590.50
2022-09-18T21:08:12.606Z,100586.97
2022-09-18T21:10:46.763Z,100586.13
2022-09-18T21:13:21.949Z,100591.44
2022-09-18T21:15:51.584Z,100593.16
2022-09-18T21:18:22.250Z,100599.22
2022-09-18T21:20:51.792Z,100602.72
2022-09-18T21:23:33.778Z,100602.66
2022-09-18T21:26:03.451Z,100600.03
2022-09-18T21:28:35.563Z,100602.59
2022-09-18T21:31:11.803Z,100602.47
2022-09-18T21:33:43.147Z,100598.97
2022-09-18T21:36:12.711Z,100595.44
2022-09-18T21:38:42.542Z,100597.22
2022-09-18T21:41:14.453Z,100600.66
2022-09-18T21:43:51.059Z,100596.19
2022-09-18T21:46:22.478Z,100602.25
2022-09-18T21:48:55.158Z,100609.28
2022-09-18T21:51:24.775Z,100596.13
2022-09-18T21:53:54.334Z,100592.66
2022-09-18T21:56:24.008Z,100593.63
2022-09-18T21:58:57.615Z,100601.41
2022-09-18T22:01:31.171Z,100606.59
2022-09-18T22:04:02.940Z,100608.31
2022-09-18T22:06:35.816Z,100608.09
2022-09-18T22:09:09.551Z,100613.34
2022-09-18T22:11:39.531Z,100607.50
2022-09-18T22:14:14.278Z,100612.78
2022-09-18T22:16:45.730Z,100611.78
2022-09-18T22:19:15.929Z,100610.78
2022-09-18T22:21:46.941Z,100621.31
2022-09-18T22:24:19.005Z,100621.25
2022-09-18T22:26:50.301Z,100632.56
2022-09-18T22:29:23.535Z,100628.22
2022-09-18T22:31:53.948Z,100617.75
2022-09-18T22:34:26.196Z,100637.94
2022-09-18T22:36:56.092Z,100635.16
2022-09-18T22:39:25.955Z,100634.31
2022-09-18T22:41:55.862Z,100630.78
2022-09-18T22:44:28.227Z,100634.31
2022-09-18T22:46:57.803Z,100636.81
2022-09-18T22:49:27.499Z,100649.97
2022-09-18T22:51:57.280Z,100655.19
2022-09-18T22:54:28.429Z,100649.06
2022-09-18T22:56:58.200Z,100649.75
2022-09-18T22:59:30.910Z,100649.63
2022-09-18T23:02:02.373Z,100649.06
2022-09-18T23:04:34.378Z,100654.38
2022-09-18T23:07:04.231Z,100649.81
2022-09-18T23:09:34.157Z,100649.06
2022-09-18T23:12:03.982Z,100656.09
2022-09-18T23:14:36.164Z,100645.56
2022-09-18T23:17:05.905Z,100660.44
2022-09-18T23:19:36.809Z,100665.63
2022-09-18T23:22:09.955Z,100667.41
2022-09-18T23:24:39.466Z,100650.78
2022-09-18T23:27:09.042Z,100669.19
2022-09-18T23:29:41.164Z,100667.19
2022-09-18T23:32:11.062Z,100668.97
2022-09-18T23:34:40.620Z,100657.59
2022-09-18T23:37:10.254Z,100661.19
2022-09-18T23:39:39.787Z,100669.97
2022-09-18T23:42:11.060Z,100677.09
2022-09-18T23:44:43.254Z,100669.84
2022-09-18T23:47:12.835Z,100667.25
2022-09-18T23:49:42.346Z,100670.81
2022-09-18T23:52:12.003Z,100682.25
2022-09-18T23:54:41.518Z,100679.63
2022-09-18T23:57:11.031Z,100677.16
2022-09-18T23:59:43.211Z,100672.75
